createdAt,value
2018-12-05T00:00:57.512Z,69.90
2018-12-05T00:05:48.460Z,69.90
2018-12-05T00:10:39.400Z,69.90
2018-12-05T00:15:31.061Z,70.40
2018-12-05T00:20:22.054Z,69.90
2018-12-05T00:25:13.733Z,69.80
2018-12-05T00:30:04.662Z,69.80
2018-12-05T00:34:55.593Z,69.80
2018-12-05T00:39:48.068Z,69.70
2018-12-05T00:44:38.222Z,69.70
2018-12-05T00:49:29.150Z,69.60
2018-12-05T00:54:20.115Z,69.60
2018-12-05T00:59:11.799Z,69.60
2018-12-05T01:04:02.716Z,69.70
2018-12-05T01:08:53.637Z,69.60
2018-12-05T01:13:44.561Z,69.70
2018-12-05T01:18:35.514Z,69.70
2018-12-05T01:23:26.437Z,69.70
2018-12-05T01:28:18.114Z,69.80
2018-12-05T01:33:09.036Z,69.80
2018-12-05T01:37:59.958Z,69.80
2018-12-05T01:42:50.871Z,69.80
2018-12-05T01:47:41.851Z,69.80
2018-12-05T01:52:32.778Z,69.80
2018-12-05T01:57:23.686Z,69.80
2018-12-05T02:02:14.642Z,69.80
2018-12-05T02:07:05.562Z,70.40
2018-12-05T02:11:56.488Z,69.80
2018-12-05T02:16:47.421Z,69.80
2018-12-05T02:21:38.337Z,69.70
2018-12-05T02:26:29.263Z,69.70
2018-12-05T02:31:20.191Z,69.70
2018-12-05T02:36:11.107Z,69.70
2018-12-05T02:41:02.044Z,69.80
2018-12-05T02:45:52.953Z,69.70
2018-12-05T02:50:43.865Z,69.70
2018-12-05T02:55:34.783Z,69.70
2018-12-05T03:00:25.707Z,69.70
2018-12-05T03:05:16.624Z,69.70
2018-12-05T03:10:07.532Z,69.80
2018-12-05T03:14:58.440Z,69.80
2018-12-05T03:19:49.431Z,69.70
2018-12-05T03:24:41.090Z,69.80
2018-12-05T03:29:32.010Z,69.80
2018-12-05T03:34:22.935Z,69.80
2018-12-05T03:39:13.850Z,69.80
2018-12-05T03:44:04.755Z,69.80
2018-12-05T03:48:55.676Z,69.70
2018-12-05T03:53:46.602Z,69.70
2018-12-05T03:58:37.519Z,69.70
2018-12-05T04:03:28.428Z,69.60
2018-12-05T04:08:19.422Z,69.70
2018-12-05T04:13:10.319Z,69.60
2018-12-05T04:18:01.944Z,69.50
2018-12-05T04:22:52.839Z,70.20
2018-12-05T04:27:43.729Z,69.50
2018-12-05T04:32:35.375Z,69.50
2018-12-05T04:37:26.266Z,69.50
2018-12-05T04:42:17.167Z,69.40
2018-12-05T04:47:08.070Z,69.70
2018-12-05T04:51:58.982Z,69.50
2018-12-05T04:56:49.898Z,69.50
2018-12-05T05:01:41.502Z,69.50
2018-12-05T05:06:33.186Z,69.50
2018-12-05T05:11:24.082Z,69.50
2018-12-05T05:16:15.014Z,69.50
2018-12-05T05:21:05.959Z,69.60
2018-12-05T05:25:56.847Z,69.50
2018-12-05T05:30:47.833Z,69.50
2018-12-05T05:35:38.743Z,69.50
2018-12-05T05:40:30.446Z,69.50
2018-12-05T05:45:21.359Z,69.40
2018-12-05T05:50:12.278Z,69.40
2018-12-05T05:55:03.179Z,69.40
2018-12-05T05:59:54.105Z,69.40
2018-12-05T06:04:44.997Z,69.30
2018-12-05T06:09:35.891Z,69.30
2018-12-05T06:14:27.535Z,69.20
2018-12-05T06:19:19.167Z,69.20
2018-12-05T06:24:10.799Z,69.20
2018-12-05T06:29:02.441Z,69.20
2018-12-05T06:33:54.086Z,69.20
2018-12-05T06:38:45.042Z,69.20
2018-12-05T06:43:35.956Z,69.30
2018-12-05T06:48:26.837Z,69.20
2018-12-05T06:53:17.725Z,69.20
2018-12-05T06:58:10.110Z,69.10
2018-12-05T07:03:00.999Z,69.10
2018-12-05T07:07:51.885Z,69.20
2018-12-05T07:12:42.778Z,69.10
2018-12-05T07:17:33.667Z,69.20
2018-12-05T07:22:25.300Z,69.10
2018-12-05T07:27:16.929Z,69.10
2018-12-05T07:32:07.821Z,69.10
2018-12-05T07:36:58.711Z,69.10
2018-12-05T07:41:49.601Z,69.10
2018-12-05T07:46:41.242Z,69.00
2018-12-05T07:51:32.129Z,69.10
2018-12-05T07:56:23.009Z,69.10
2018-12-05T08:01:13.910Z,69.10
2018-12-05T08:06:04.819Z,69.10
2018-12-05T08:10:55.722Z,69.10
2018-12-05T08:15:47.356Z,69.10
2018-12-05T08:20:38.987Z,69.20
2018-12-05T08:25:30.620Z,69.30
2018-12-05T08:30:22.244Z,69.40
2018-12-05T08:35:13.225Z,69.40
2018-12-05T08:40:04.110Z,69.40
2018-12-05T08:44:55.007Z,69.60
2018-12-05T08:49:46.646Z,70.50
2018-12-05T08:54:38.273Z,70.90
2018-12-05T08:59:29.231Z,70.90
2018-12-05T09:04:20.136Z,71.30
2018-12-05T09:09:11.782Z,71.80
2018-12-05T09:14:02.656Z,71.80
2018-12-05T09:18:53.540Z,72.00
2018-12-05T09:23:44.437Z,72.00
2018-12-05T09:28:35.330Z,72.10
2018-12-05T09:33:26.959Z,71.90
2018-12-05T09:38:18.586Z,71.90
2018-12-05T09:43:09.483Z,71.90
2018-12-05T09:48:00.369Z,71.90
2018-12-05T09:52:51.283Z,71.90
2018-12-05T09:57:42.182Z,72.00
2018-12-05T10:02:33.927Z,72.10
2018-12-05T10:07:24.927Z,72.10
2018-12-05T10:12:15.855Z,72.30
2018-12-05T10:17:07.485Z,72.00
2018-12-05T10:21:59.113Z,72.00
2018-12-05T10:26:50.005Z,72.00
2018-12-05T10:31:44.012Z,71.80
2018-12-05T10:36:31.838Z,71.90
2018-12-05T10:41:22.735Z,71.80
2018-12-05T10:46:13.753Z,71.90
2018-12-05T10:51:04.649Z,72.10
2018-12-05T10:55:56.287Z,71.80
2018-12-05T11:00:53.309Z,71.80
2018-12-05T11:05:50.546Z,71.70
2018-12-05T11:10:47.649Z,71.40
2018-12-05T11:21:09.197Z,71.00
2018-12-05T11:26:00.098Z,71.00
2018-12-05T11:30:51.007Z,70.60
2018-12-05T11:35:41.983Z,70.60
2018-12-05T11:40:33.609Z,70.40
2018-12-05T11:45:24.500Z,70.40
2018-12-05T11:50:15.385Z,70.60
2018-12-05T11:55:06.261Z,70.30
2018-12-05T11:59:57.142Z,69.00
2018-12-05T12:04:48.043Z,68.90
2018-12-05T12:09:38.991Z,68.50
2018-12-05T12:14:29.880Z,68.30
2018-12-05T12:19:20.792Z,67.80
2018-12-05T12:24:11.674Z,67.10
2018-12-05T12:29:02.553Z,66.50
2018-12-05T12:33:53.451Z,66.60
2018-12-05T12:38:44.346Z,66.00
2018-12-05T12:43:35.970Z,65.20
2018-12-05T12:48:27.602Z,65.30
2018-12-05T12:53:18.495Z,65.10
2018-12-05T12:58:09.398Z,64.60
2018-12-05T13:03:00.295Z,63.90
2018-12-05T13:07:51.201Z,64.00
2018-12-05T13:12:42.087Z,63.80
2018-12-05T13:17:32.987Z,63.10
2018-12-05T13:22:23.886Z,62.50
2018-12-05T13:27:14.788Z,62.50
2018-12-05T13:32:05.690Z,62.20
2018-12-05T13:36:56.587Z,62.30
2018-12-05T13:41:48.236Z,62.70
2018-12-05T13:46:39.864Z,62.90
2018-12-05T13:51:31.552Z,63.10
2018-12-05T13:56:22.446Z,63.10
2018-12-05T14:01:13.347Z,62.50
2018-12-05T14:06:04.987Z,63.50
2018-12-05T14:10:55.959Z,63.30
2018-12-05T14:15:46.853Z,63.80
2018-12-05T14:20:37.740Z,63.90
2018-12-05T14:25:29.381Z,64.80
2018-12-05T14:30:20.283Z,64.70
2018-12-05T14:35:11.931Z,65.00
2018-12-05T14:40:16.652Z,65.00
2018-12-05T14:45:08.427Z,65.10
2018-12-05T14:49:59.368Z,65.30
2018-12-05T14:54:50.268Z,65.70
2018-12-05T14:59:41.233Z,65.90
2018-12-05T15:04:32.441Z,66.10
2018-12-05T15:09:23.341Z,66.10
2018-12-05T15:14:14.257Z,66.20
2018-12-05T15:19:05.201Z,66.30
2018-12-05T15:23:56.092Z,66.30
2018-12-05T15:28:47.032Z,66.50
2018-12-05T15:33:37.922Z,66.60
2018-12-05T15:38:28.893Z,66.60
2018-12-05T15:43:19.824Z,66.60
2018-12-05T15:48:10.723Z,66.70
2018-12-05T15:53:01.612Z,66.70
2018-12-05T15:57:52.508Z,66.90
2018-12-05T16:02:43.403Z,67.10
2018-12-05T16:07:35.050Z,67.10
2018-12-05T16:12:26.677Z,67.20
2018-12-05T16:17:18.383Z,67.30
2018-12-05T16:22:09.269Z,67.30
2018-12-05T16:27:00.170Z,67.30
2018-12-05T16:31:51.050Z,67.40
2018-12-05T16:36:41.950Z,67.40
2018-12-05T16:41:32.870Z,67.40
2018-12-05T16:46:23.771Z,67.50
2018-12-05T16:51:14.664Z,67.60
2018-12-05T16:56:05.563Z,67.70
2018-12-05T17:00:57.189Z,67.90
2018-12-05T17:05:48.090Z,67.90
2018-12-05T17:10:38.990Z,67.90
2018-12-05T17:15:29.874Z,67.90
2018-12-05T17:20:20.839Z,67.90
2018-12-05T17:25:11.739Z,68.10
2018-12-05T17:30:02.632Z,68.10
2018-12-05T17:34:53.538Z,68.10
2018-12-05T17:39:45.165Z,68.20
2018-12-05T17:44:36.808Z,68.20
2018-12-05T17:49:28.451Z,68.20
2018-12-05T17:54:19.890Z,68.20
2018-12-05T17:59:10.777Z,68.30
2018-12-05T18:04:01.664Z,68.30
2018-12-05T18:08:52.561Z,68.30
2018-12-05T18:13:43.466Z,68.30
2018-12-05T18:18:34.422Z,68.30
2018-12-05T18:23:25.323Z,68.30
2018-12-05T18:28:16.219Z,68.30
2018-12-05T18:33:07.173Z,68.40
2018-12-05T18:37:58.079Z,68.40
2018-12-05T18:42:48.975Z,68.40
2018-12-05T18:47:39.888Z,68.50
2018-12-05T18:52:31.493Z,68.60
2018-12-05T18:57:22.487Z,68.50
2018-12-05T19:02:13.383Z,68.60
2018-12-05T19:07:04.281Z,68.60
2018-12-05T19:11:55.257Z,68.60
2018-12-05T19:16:46.150Z,68.70
2018-12-05T19:21:37.077Z,68.80
2018-12-05T19:26:27.993Z,68.70
2018-12-05T19:31:19.476Z,68.80
2018-12-05T19:36:09.811Z,68.80
2018-12-05T19:41:00.697Z,68.90
2018-12-05T19:45:52.327Z,68.90
2018-12-05T19:50:44.058Z,68.90
2018-12-05T19:55:34.959Z,68.90
2018-12-05T20:00:25.870Z,68.70
2018-12-05T20:05:16.768Z,68.70
2018-12-05T20:10:07.660Z,68.70
2018-12-05T20:14:58.570Z,68.60
2018-12-05T20:19:49.557Z,68.60
2018-12-05T20:24:40.451Z,68.70
2018-12-05T20:29:31.347Z,68.80
2018-12-05T20:34:22.333Z,68.70
2018-12-05T20:39:14.009Z,68.80
2018-12-05T20:44:04.893Z,68.80
2018-12-05T20:48:56.527Z,68.90
2018-12-05T20:53:48.218Z,68.90
2018-12-05T20:58:39.114Z,68.80
2018-12-05T21:03:30.016Z,68.80
2018-12-05T21:08:20.945Z,68.80
2018-12-05T21:13:11.817Z,68.80
2018-12-05T21:18:02.707Z,69.40
2018-12-05T21:22:53.611Z,68.80
2018-12-05T21:27:44.559Z,68.80
2018-12-05T21:32:35.461Z,68.80
2018-12-05T21:37:26.360Z,68.80
2018-12-05T21:42:17.268Z,68.80
2018-12-05T21:47:08.158Z,68.80
2018-12-05T21:51:59.793Z,68.80
2018-12-05T21:56:51.421Z,68.80
2018-12-05T22:01:42.331Z,68.80
2018-12-05T22:06:33.247Z,68.80
2018-12-05T22:11:24.146Z,68.90
2018-12-05T22:16:15.077Z,68.90
2018-12-05T22:21:05.979Z,68.90
2018-12-05T22:25:56.928Z,68.80
2018-12-05T22:30:47.838Z,68.80
2018-12-05T22:35:38.748Z,68.80
2018-12-05T22:40:29.661Z,68.80
2018-12-05T22:45:20.595Z,68.80
2018-12-05T22:50:11.571Z,68.80
2018-12-05T22:55:02.475Z,68.80
2018-12-05T22:59:53.373Z,68.80
2018-12-05T23:04:45.089Z,68.80
2018-12-05T23:09:35.997Z,68.80
2018-12-05T23:14:26.933Z,68.80
2018-12-05T23:19:17.825Z,68.80
2018-12-05T23:24:08.717Z,68.80
2018-12-05T23:28:59.614Z,68.80
2018-12-05T23:33:51.307Z,68.80
2018-12-05T23:38:42.208Z,68.80
2018-12-05T23:43:33.135Z,68.80
2018-12-05T23:48:24.045Z,68.80
2018-12-05T23:53:14.953Z,68.80
2018-12-05T23:58:05.856Z,68.80
